sensor_id;sensor_type;location;lat;lon;timestamp;P1;durP1;ratioP1;P2;durP2;ratioP2
14939;SDS011;11825;51.898;8.202;2023-04-24T00:01:13;0.47;;;0.47;;
14939;SDS011;11825;51.898;8.202;2023-04-24T00:06:16;0.70;;;0.70;;
14939;SDS011;11825;51.898;8.202;2023-04-24T00:11:18;2.30;;;0.77;;
14939;SDS011;11825;51.898;8.202;2023-04-24T00:16:21;0.63;;;0.63;;
14939;SDS011;11825;51.898;8.202;2023-04-24T00:21:23;4.10;;;0.70;;
14939;SDS011;11825;51.898;8.202;2023-04-24T00:26:27;0.67;;;0.67;;
14939;SDS011;11825;51.898;8.202;2023-04-24T00:31:28;0.80;;;0.70;;
14939;SDS011;11825;51.898;8.202;2023-04-24T00:36:31;0.83;;;0.83;;
14939;SDS011;11825;51.898;8.202;2023-04-24T00:41:33;1.77;;;0.70;;
14939;SDS011;11825;51.898;8.202;2023-04-24T00:46:35;2.10;;;0.80;;
14939;SDS011;11825;51.898;8.202;2023-04-24T00:51:37;2.13;;;0.57;;
14939;SDS011;11825;51.898;8.202;2023-04-24T00:56:40;1.53;;;0.93;;
14939;SDS011;11825;51.898;8.202;2023-04-24T01:01:43;0.70;;;0.70;;
14939;SDS011;11825;51.898;8.202;2023-04-24T01:06:46;0.97;;;0.97;;
14939;SDS011;11825;51.898;8.202;2023-04-24T01:11:48;0.80;;;0.80;;
14939;SDS011;11825;51.898;8.202;2023-04-24T01:16:50;1.10;;;1.00;;
14939;SDS011;11825;51.898;8.202;2023-04-24T01:21:53;1.00;;;0.87;;
14939;SDS011;11825;51.898;8.202;2023-04-24T01:26:55;1.90;;;0.93;;
14939;SDS011;11825;51.898;8.202;2023-04-24T01:31:58;1.13;;;1.03;;
14939;SDS011;11825;51.898;8.202;2023-04-24T01:36:59;1.20;;;0.87;;
14939;SDS011;11825;51.898;8.202;2023-04-24T01:42:01;0.77;;;0.77;;
14939;SDS011;11825;51.898;8.202;2023-04-24T01:47:03;0.80;;;0.80;;
14939;SDS011;11825;51.898;8.202;2023-04-24T01:52:06;1.10;;;0.97;;
14939;SDS011;11825;51.898;8.202;2023-04-24T01:57:07;1.90;;;1.40;;
14939;SDS011;11825;51.898;8.202;2023-04-24T02:02:10;3.17;;;1.57;;
14939;SDS011;11825;51.898;8.202;2023-04-24T02:07:11;2.20;;;2.00;;
14939;SDS011;11825;51.898;8.202;2023-04-24T02:12:14;2.97;;;1.90;;
14939;SDS011;11825;51.898;8.202;2023-04-24T02:17:16;1.60;;;1.50;;
14939;SDS011;11825;51.898;8.202;2023-04-24T02:22:20;1.70;;;1.60;;
14939;SDS011;11825;51.898;8.202;2023-04-24T02:27:22;2.97;;;2.00;;
14939;SDS011;11825;51.898;8.202;2023-04-24T02:32:24;2.90;;;1.73;;
14939;SDS011;11825;51.898;8.202;2023-04-24T02:37:25;1.80;;;1.70;;
14939;SDS011;11825;51.898;8.202;2023-04-24T02:42:27;2.73;;;1.50;;
14939;SDS011;11825;51.898;8.202;2023-04-24T02:47:29;1.97;;;1.83;;
14939;SDS011;11825;51.898;8.202;2023-04-24T02:52:31;1.70;;;1.60;;
14939;SDS011;11825;51.898;8.202;2023-04-24T02:57:33;2.23;;;1.80;;
14939;SDS011;11825;51.898;8.202;2023-04-24T03:08:51;2.10;;;1.90;;
14939;SDS011;11825;51.898;8.202;2023-04-24T03:13:52;2.23;;;1.77;;
14939;SDS011;11825;51.898;8.202;2023-04-24T03:18:54;2.20;;;1.60;;
14939;SDS011;11825;51.898;8.202;2023-04-24T03:23:56;2.20;;;2.00;;
14939;SDS011;11825;51.898;8.202;2023-04-24T03:28:58;2.23;;;2.03;;
14939;SDS011;11825;51.898;8.202;2023-04-24T03:34:00;2.23;;;1.97;;
14939;SDS011;11825;51.898;8.202;2023-04-24T03:39:03;2.30;;;1.80;;
14939;SDS011;11825;51.898;8.202;2023-04-24T03:44:05;2.77;;;2.27;;
14939;SDS011;11825;51.898;8.202;2023-04-24T03:49:06;2.93;;;2.63;;
14939;SDS011;11825;51.898;8.202;2023-04-24T03:54:08;2.70;;;2.50;;
14939;SDS011;11825;51.898;8.202;2023-04-24T03:59:10;1.97;;;1.87;;
14939;SDS011;11825;51.898;8.202;2023-04-24T04:04:12;1.93;;;1.83;;
14939;SDS011;11825;51.898;8.202;2023-04-24T04:09:14;3.53;;;2.53;;
14939;SDS011;11825;51.898;8.202;2023-04-24T04:14:16;3.13;;;2.93;;
14939;SDS011;11825;51.898;8.202;2023-04-24T04:19:18;6.63;;;4.53;;
14939;SDS011;11825;51.898;8.202;2023-04-24T04:24:20;6.60;;;5.87;;
14939;SDS011;11825;51.898;8.202;2023-04-24T04:29:23;7.70;;;6.90;;
14939;SDS011;11825;51.898;8.202;2023-04-24T04:34:25;8.63;;;7.33;;
14939;SDS011;11825;51.898;8.202;2023-04-24T04:39:27;10.00;;;8.23;;
14939;SDS011;11825;51.898;8.202;2023-04-24T04:44:29;9.43;;;8.53;;
14939;SDS011;11825;51.898;8.202;2023-04-24T04:49:32;9.17;;;7.77;;
14939;SDS011;11825;51.898;8.202;2023-04-24T04:54:34;9.83;;;8.13;;
14939;SDS011;11825;51.898;8.202;2023-04-24T04:59:36;8.57;;;7.67;;
14939;SDS011;11825;51.898;8.202;2023-04-24T05:04:38;9.13;;;8.23;;
14939;SDS011;11825;51.898;8.202;2023-04-24T05:09:40;10.23;;;8.67;;
14939;SDS011;11825;51.898;8.202;2023-04-24T05:14:42;9.77;;;8.83;;
14939;SDS011;11825;51.898;8.202;2023-04-24T05:19:44;10.27;;;9.27;;
14939;SDS011;11825;51.898;8.202;2023-04-24T05:24:47;10.00;;;9.00;;
14939;SDS011;11825;51.898;8.202;2023-04-24T05:29:50;9.83;;;8.67;;
14939;SDS011;11825;51.898;8.202;2023-04-24T05:34:52;14.20;;;10.00;;
14939;SDS011;11825;51.898;8.202;2023-04-24T05:39:54;10.53;;;9.43;;
14939;SDS011;11825;51.898;8.202;2023-04-24T05:44:56;10.53;;;9.43;;
14939;SDS011;11825;51.898;8.202;2023-04-24T05:49:58;14.13;;;12.00;;
14939;SDS011;11825;51.898;8.202;2023-04-24T05:55:00;13.20;;;10.87;;
14939;SDS011;11825;51.898;8.202;2023-04-24T06:00:02;12.60;;;11.33;;
14939;SDS011;11825;51.898;8.202;2023-04-24T06:05:05;13.43;;;12.13;;
14939;SDS011;11825;51.898;8.202;2023-04-24T06:10:07;12.37;;;11.00;;
14939;SDS011;11825;51.898;8.202;2023-04-24T06:15:10;13.73;;;11.63;;
14939;SDS011;11825;51.898;8.202;2023-04-24T06:20:13;13.67;;;12.03;;
14939;SDS011;11825;51.898;8.202;2023-04-24T06:25:15;14.13;;;12.10;;
14939;SDS011;11825;51.898;8.202;2023-04-24T06:30:17;12.97;;;11.53;;
14939;SDS011;11825;51.898;8.202;2023-04-24T06:35:19;13.07;;;11.50;;
14939;SDS011;11825;51.898;8.202;2023-04-24T06:40:21;12.57;;;11.43;;
14939;SDS011;11825;51.898;8.202;2023-04-24T06:45:23;13.47;;;12.20;;
14939;SDS011;11825;51.898;8.202;2023-04-24T06:50:25;13.77;;;12.07;;
14939;SDS011;11825;51.898;8.202;2023-04-24T06:55:27;14.67;;;12.30;;
14939;SDS011;11825;51.898;8.202;2023-04-24T07:00:29;11.47;;;10.23;;
14939;SDS011;11825;51.898;8.202;2023-04-24T07:05:31;10.43;;;9.07;;
14939;SDS011;11825;51.898;8.202;2023-04-24T07:10:37;10.90;;;9.80;;
14939;SDS011;11825;51.898;8.202;2023-04-24T07:15:39;9.43;;;8.57;;
14939;SDS011;11825;51.898;8.202;2023-04-24T07:20:42;9.57;;;7.37;;
14939;SDS011;11825;51.898;8.202;2023-04-24T07:25:46;8.07;;;7.03;;
14939;SDS011;11825;51.898;8.202;2023-04-24T07:30:48;9.80;;;7.00;;
14939;SDS011;11825;51.898;8.202;2023-04-24T07:35:50;8.37;;;6.43;;
14939;SDS011;11825;51.898;8.202;2023-04-24T07:40:53;6.30;;;5.70;;
14939;SDS011;11825;51.898;8.202;2023-04-24T07:45:55;6.87;;;6.00;;
14939;SDS011;11825;51.898;8.202;2023-04-24T07:50:57;6.90;;;6.27;;
14939;SDS011;11825;51.898;8.202;2023-04-24T07:55:59;5.23;;;4.73;;
14939;SDS011;11825;51.898;8.202;2023-04-24T08:01:01;6.93;;;5.90;;
14939;SDS011;11825;51.898;8.202;2023-04-24T08:06:03;8.67;;;6.40;;
14939;SDS011;11825;51.898;8.202;2023-04-24T08:11:05;6.33;;;5.67;;
14939;SDS011;11825;51.898;8.202;2023-04-24T08:16:07;5.80;;;5.20;;
14939;SDS011;11825;51.898;8.202;2023-04-24T08:21:09;4.97;;;4.47;;
14939;SDS011;11825;51.898;8.202;2023-04-24T08:26:12;5.20;;;4.17;;
14939;SDS011;11825;51.898;8.202;2023-04-24T08:31:15;3.33;;;3.13;;
14939;SDS011;11825;51.898;8.202;2023-04-24T08:36:17;3.50;;;3.20;;
14939;SDS011;11825;51.898;8.202;2023-04-24T08:41:19;3.70;;;3.30;;
14939;SDS011;11825;51.898;8.202;2023-04-24T08:46:22;3.87;;;3.53;;
14939;SDS011;11825;51.898;8.202;2023-04-24T08:51:24;3.23;;;3.03;;
14939;SDS011;11825;51.898;8.202;2023-04-24T08:56:27;3.33;;;3.03;;
14939;SDS011;11825;51.898;8.202;2023-04-24T09:01:31;2.60;;;2.40;;
14939;SDS011;11825;51.898;8.202;2023-04-24T09:06:34;4.63;;;2.90;;
14939;SDS011;11825;51.898;8.202;2023-04-24T09:11:36;2.90;;;2.60;;
14939;SDS011;11825;51.898;8.202;2023-04-24T09:16:38;3.53;;;2.93;;
14939;SDS011;11825;51.898;8.202;2023-04-24T09:21:40;2.67;;;2.47;;
14939;SDS011;11825;51.898;8.202;2023-04-24T09:26:46;3.40;;;3.00;;
14939;SDS011;11825;51.898;8.202;2023-04-24T09:31:49;3.17;;;2.90;;
14939;SDS011;11825;51.898;8.202;2023-04-24T09:36:51;3.07;;;2.83;;
14939;SDS011;11825;51.898;8.202;2023-04-24T09:41:54;3.07;;;2.77;;
14939;SDS011;11825;51.898;8.202;2023-04-24T09:47:00;2.70;;;1.90;;
14939;SDS011;11825;51.898;8.202;2023-04-24T09:52:06;1.53;;;1.43;;
14939;SDS011;11825;51.898;8.202;2023-04-24T09:57:10;1.60;;;1.50;;
14939;SDS011;11825;51.898;8.202;2023-04-24T10:02:18;3.03;;;1.70;;
14939;SDS011;11825;51.898;8.202;2023-04-24T10:07:21;2.80;;;1.70;;
14939;SDS011;11825;51.898;8.202;2023-04-24T10:12:23;1.90;;;1.80;;
14939;SDS011;11825;51.898;8.202;2023-04-24T10:17:26;2.13;;;1.90;;
14939;SDS011;11825;51.898;8.202;2023-04-24T10:22:28;2.00;;;1.90;;
14939;SDS011;11825;51.898;8.202;2023-04-24T10:27:31;2.23;;;2.07;;
14939;SDS011;11825;51.898;8.202;2023-04-24T10:32:33;3.13;;;2.50;;
14939;SDS011;11825;51.898;8.202;2023-04-24T10:37:37;3.73;;;3.43;;
14939;SDS011;11825;51.898;8.202;2023-04-24T10:42:51;2.70;;;2.50;;
14939;SDS011;11825;51.898;8.202;2023-04-24T10:48:05;3.27;;;2.90;;
14939;SDS011;11825;51.898;8.202;2023-04-24T10:53:17;2.97;;;2.77;;
14939;SDS011;11825;51.898;8.202;2023-04-24T10:58:38;4.30;;;3.90;;
14939;SDS011;11825;51.898;8.202;2023-04-24T11:03:50;3.77;;;3.47;;
14939;SDS011;11825;51.898;8.202;2023-04-24T11:09:06;4.07;;;3.70;;
14939;SDS011;11825;51.898;8.202;2023-04-24T11:14:10;4.07;;;3.70;;
14939;SDS011;11825;51.898;8.202;2023-04-24T11:30:35;7.57;;;5.13;;
14939;SDS011;11825;51.898;8.202;2023-04-24T11:35:43;7.30;;;4.80;;
14939;SDS011;11825;51.898;8.202;2023-04-24T11:40:45;3.83;;;2.60;;
14939;SDS011;11825;51.898;8.202;2023-04-24T11:45:50;2.63;;;2.30;;
14939;SDS011;11825;51.898;8.202;2023-04-24T11:50:52;5.03;;;2.93;;
14939;SDS011;11825;51.898;8.202;2023-04-24T11:55:53;2.87;;;2.40;;
14939;SDS011;11825;51.898;8.202;2023-04-24T12:00:56;6.43;;;3.10;;
14939;SDS011;11825;51.898;8.202;2023-04-24T12:06:06;3.87;;;2.80;;
14939;SDS011;11825;51.898;8.202;2023-04-24T12:11:14;5.33;;;3.00;;
14939;SDS011;11825;51.898;8.202;2023-04-24T12:16:17;4.20;;;3.57;;
14939;SDS011;11825;51.898;8.202;2023-04-24T12:21:20;8.00;;;4.17;;
14939;SDS011;11825;51.898;8.202;2023-04-24T12:26:23;5.27;;;4.07;;
14939;SDS011;11825;51.898;8.202;2023-04-24T12:31:27;5.20;;;4.07;;
14939;SDS011;11825;51.898;8.202;2023-04-24T12:36:30;5.00;;;4.47;;
14939;SDS011;11825;51.898;8.202;2023-04-24T12:41:32;5.00;;;4.10;;
14939;SDS011;11825;51.898;8.202;2023-04-24T12:46:36;6.70;;;5.10;;
14939;SDS011;11825;51.898;8.202;2023-04-24T12:51:38;7.77;;;5.63;;
14939;SDS011;11825;51.898;8.202;2023-04-24T12:56:40;8.77;;;5.83;;
14939;SDS011;11825;51.898;8.202;2023-04-24T13:01:42;9.20;;;6.40;;
14939;SDS011;11825;51.898;8.202;2023-04-24T13:06:44;8.80;;;6.30;;
14939;SDS011;11825;51.898;8.202;2023-04-24T13:11:46;11.60;;;6.03;;
14939;SDS011;11825;51.898;8.202;2023-04-24T13:16:48;7.43;;;5.00;;
14939;SDS011;11825;51.898;8.202;2023-04-24T13:21:50;14.53;;;5.83;;
14939;SDS011;11825;51.898;8.202;2023-04-24T13:26:52;8.67;;;5.43;;
14939;SDS011;11825;51.898;8.202;2023-04-24T13:31:55;7.43;;;5.87;;
14939;SDS011;11825;51.898;8.202;2023-04-24T13:36:58;10.10;;;6.20;;
14939;SDS011;11825;51.898;8.202;2023-04-24T13:42:00;8.80;;;5.87;;
14939;SDS011;11825;51.898;8.202;2023-04-24T13:47:05;8.83;;;5.73;;
14939;SDS011;11825;51.898;8.202;2023-04-24T13:52:07;11.10;;;6.40;;
14939;SDS011;11825;51.898;8.202;2023-04-24T13:57:09;10.50;;;6.40;;
14939;SDS011;11825;51.898;8.202;2023-04-24T14:02:11;9.87;;;7.57;;
14939;SDS011;11825;51.898;8.202;2023-04-24T14:07:13;12.43;;;7.43;;
14939;SDS011;11825;51.898;8.202;2023-04-24T14:12:15;13.07;;;6.27;;
14939;SDS011;11825;51.898;8.202;2023-04-24T14:17:20;7.97;;;4.87;;
14939;SDS011;11825;51.898;8.202;2023-04-24T14:22:23;9.17;;;6.37;;
14939;SDS011;11825;51.898;8.202;2023-04-24T14:27:25;6.70;;;4.77;;
14939;SDS011;11825;51.898;8.202;2023-04-24T14:32:27;6.33;;;4.00;;
14939;SDS011;11825;51.898;8.202;2023-04-24T14:37:29;7.83;;;4.97;;
14939;SDS011;11825;51.898;8.202;2023-04-24T14:42:31;4.73;;;3.77;;
14939;SDS011;11825;51.898;8.202;2023-04-24T14:47:33;3.57;;;3.27;;
14939;SDS011;11825;51.898;8.202;2023-04-24T14:52:39;3.83;;;2.87;;
14939;SDS011;11825;51.898;8.202;2023-04-24T14:57:41;5.37;;;2.97;;
14939;SDS011;11825;51.898;8.202;2023-04-24T15:02:45;3.30;;;3.00;;
14939;SDS011;11825;51.898;8.202;2023-04-24T15:07:49;4.50;;;2.93;;
14939;SDS011;11825;51.898;8.202;2023-04-24T15:12:51;2.50;;;2.30;;
14939;SDS011;11825;51.898;8.202;2023-04-24T15:17:54;3.10;;;2.30;;
14939;SDS011;11825;51.898;8.202;2023-04-24T15:22:59;5.47;;;3.20;;
14939;SDS011;11825;51.898;8.202;2023-04-24T15:28:01;6.37;;;3.07;;
14939;SDS011;11825;51.898;8.202;2023-04-24T15:33:05;15.73;;;12.47;;
14939;SDS011;11825;51.898;8.202;2023-04-24T15:38:08;3.97;;;2.97;;
14939;SDS011;11825;51.898;8.202;2023-04-24T15:43:13;2.70;;;2.47;;
14939;SDS011;11825;51.898;8.202;2023-04-24T15:48:16;1.70;;;1.60;;
14939;SDS011;11825;51.898;8.202;2023-04-24T15:53:20;5.50;;;3.03;;
14939;SDS011;11825;51.898;8.202;2023-04-24T15:58:25;6.33;;;2.67;;
14939;SDS011;11825;51.898;8.202;2023-04-24T16:03:27;3.30;;;2.00;;
14939;SDS011;11825;51.898;8.202;2023-04-24T16:08:30;4.40;;;2.13;;
14939;SDS011;11825;51.898;8.202;2023-04-24T16:13:33;3.73;;;1.87;;
14939;SDS011;11825;51.898;8.202;2023-04-24T16:18:35;5.07;;;2.93;;
14939;SDS011;11825;51.898;8.202;2023-04-24T16:23:42;3.27;;;2.20;;
14939;SDS011;11825;51.898;8.202;2023-04-24T16:28:44;1.87;;;1.70;;
14939;SDS011;11825;51.898;8.202;2023-04-24T16:33:47;2.53;;;2.33;;
14939;SDS011;11825;51.898;8.202;2023-04-24T16:38:53;3.97;;;1.73;;
14939;SDS011;11825;51.898;8.202;2023-04-24T16:43:56;5.80;;;2.47;;
14939;SDS011;11825;51.898;8.202;2023-04-24T16:49:01;7.00;;;2.03;;
14939;SDS011;11825;51.898;8.202;2023-04-24T16:54:10;4.50;;;2.30;;
14939;SDS011;11825;51.898;8.202;2023-04-24T16:59:12;3.60;;;1.93;;
14939;SDS011;11825;51.898;8.202;2023-04-24T17:04:15;2.67;;;2.10;;
14939;SDS011;11825;51.898;8.202;2023-04-24T17:09:18;6.93;;;2.70;;
14939;SDS011;11825;51.898;8.202;2023-04-24T17:14:23;3.10;;;2.07;;
14939;SDS011;11825;51.898;8.202;2023-04-24T17:19:26;3.60;;;2.20;;
14939;SDS011;11825;51.898;8.202;2023-04-24T17:24:28;4.57;;;2.23;;
14939;SDS011;11825;51.898;8.202;2023-04-24T17:29:31;6.27;;;2.23;;
14939;SDS011;11825;51.898;8.202;2023-04-24T17:34:36;4.20;;;1.83;;
14939;SDS011;11825;51.898;8.202;2023-04-24T17:39:38;4.03;;;2.00;;
14939;SDS011;11825;51.898;8.202;2023-04-24T17:44:43;10.97;;;2.90;;
14939;SDS011;11825;51.898;8.202;2023-04-24T17:49:45;4.67;;;3.70;;
14939;SDS011;11825;51.898;8.202;2023-04-24T17:54:47;5.60;;;3.07;;
14939;SDS011;11825;51.898;8.202;2023-04-24T17:59:51;7.03;;;3.17;;
14939;SDS011;11825;51.898;8.202;2023-04-24T18:04:54;6.40;;;3.10;;
14939;SDS011;11825;51.898;8.202;2023-04-24T18:09:57;7.93;;;2.53;;
14939;SDS011;11825;51.898;8.202;2023-04-24T18:15:01;7.70;;;3.57;;
14939;SDS011;11825;51.898;8.202;2023-04-24T18:20:15;3.83;;;2.67;;
14939;SDS011;11825;51.898;8.202;2023-04-24T18:25:19;6.33;;;3.53;;
14939;SDS011;11825;51.898;8.202;2023-04-24T18:30:27;5.83;;;4.13;;
14939;SDS011;11825;51.898;8.202;2023-04-24T18:35:33;5.20;;;2.97;;
14939;SDS011;11825;51.898;8.202;2023-04-24T18:40:38;8.17;;;4.20;;
14939;SDS011;11825;51.898;8.202;2023-04-24T18:45:52;5.03;;;2.97;;
14939;SDS011;11825;51.898;8.202;2023-04-24T18:50:54;7.80;;;3.37;;
14939;SDS011;11825;51.898;8.202;2023-04-24T18:55:55;5.60;;;3.10;;
14939;SDS011;11825;51.898;8.202;2023-04-24T19:00:57;5.70;;;3.47;;
14939;SDS011;11825;51.898;8.202;2023-04-24T19:05:59;6.50;;;3.30;;
14939;SDS011;11825;51.898;8.202;2023-04-24T19:11:01;5.33;;;2.80;;
14939;SDS011;11825;51.898;8.202;2023-04-24T19:16:04;11.53;;;3.57;;
14939;SDS011;11825;51.898;8.202;2023-04-24T19:21:06;8.87;;;4.03;;
14939;SDS011;11825;51.898;8.202;2023-04-24T19:26:08;8.60;;;3.40;;
14939;SDS011;11825;51.898;8.202;2023-04-24T19:31:11;6.43;;;4.13;;
14939;SDS011;11825;51.898;8.202;2023-04-24T19:36:14;7.73;;;4.20;;
14939;SDS011;11825;51.898;8.202;2023-04-24T19:41:18;8.93;;;4.20;;
14939;SDS011;11825;51.898;8.202;2023-04-24T19:46:20;13.60;;;9.37;;
14939;SDS011;11825;51.898;8.202;2023-04-24T19:51:23;7.13;;;4.07;;
14939;SDS011;11825;51.898;8.202;2023-04-24T19:56:25;8.33;;;4.07;;
14939;SDS011;11825;51.898;8.202;2023-04-24T20:01:29;6.93;;;3.80;;
14939;SDS011;11825;51.898;8.202;2023-04-24T20:06:32;12.07;;;4.43;;
14939;SDS011;11825;51.898;8.202;2023-04-24T20:11:34;8.07;;;4.13;;
14939;SDS011;11825;51.898;8.202;2023-04-24T20:16:36;8.50;;;3.93;;
14939;SDS011;11825;51.898;8.202;2023-04-24T20:21:38;10.43;;;5.17;;
14939;SDS011;11825;51.898;8.202;2023-04-24T20:26:43;10.00;;;4.10;;
14939;SDS011;11825;51.898;8.202;2023-04-24T20:31:45;6.83;;;4.60;;
14939;SDS011;11825;51.898;8.202;2023-04-24T20:36:47;11.20;;;4.23;;
14939;SDS011;11825;51.898;8.202;2023-04-24T20:41:50;9.33;;;4.47;;
14939;SDS011;11825;51.898;8.202;2023-04-24T20:46:52;15.17;;;8.23;;
14939;SDS011;11825;51.898;8.202;2023-04-24T20:51:54;9.03;;;4.97;;
14939;SDS011;11825;51.898;8.202;2023-04-24T20:56:56;8.10;;;4.33;;
14939;SDS011;11825;51.898;8.202;2023-04-24T21:01:58;10.37;;;4.53;;
14939;SDS011;11825;51.898;8.202;2023-04-24T21:07:01;11.40;;;5.47;;
14939;SDS011;11825;51.898;8.202;2023-04-24T21:12:03;13.87;;;6.90;;
14939;SDS011;11825;51.898;8.202;2023-04-24T21:17:05;9.17;;;4.87;;
14939;SDS011;11825;51.898;8.202;2023-04-24T21:22:07;5.23;;;4.70;;
14939;SDS011;11825;51.898;8.202;2023-04-24T21:27:08;9.83;;;5.13;;
14939;SDS011;11825;51.898;8.202;2023-04-24T21:32:11;7.80;;;5.40;;
14939;SDS011;11825;51.898;8.202;2023-04-24T21:37:13;21.67;;;16.33;;
14939;SDS011;11825;51.898;8.202;2023-04-24T21:42:17;11.53;;;7.07;;
14939;SDS011;11825;51.898;8.202;2023-04-24T21:47:19;7.53;;;5.37;;
14939;SDS011;11825;51.898;8.202;2023-04-24T21:52:21;8.87;;;5.67;;
14939;SDS011;11825;51.898;8.202;2023-04-24T21:57:24;11.37;;;6.27;;
14939;SDS011;11825;51.898;8.202;2023-04-24T22:02:26;12.90;;;6.00;;
14939;SDS011;11825;51.898;8.202;2023-04-24T22:07:29;13.43;;;5.00;;
14939;SDS011;11825;51.898;8.202;2023-04-24T22:12:33;9.50;;;5.30;;
14939;SDS011;11825;51.898;8.202;2023-04-24T22:17:36;10.50;;;5.23;;
14939;SDS011;11825;51.898;8.202;2023-04-24T22:22:40;10.03;;;6.00;;
14939;SDS011;11825;51.898;8.202;2023-04-24T22:27:43;11.73;;;5.03;;
14939;SDS011;11825;51.898;8.202;2023-04-24T22:32:46;16.43;;;5.10;;
14939;SDS011;11825;51.898;8.202;2023-04-24T22:37:53;9.20;;;5.77;;
14939;SDS011;11825;51.898;8.202;2023-04-24T22:42:57;13.13;;;5.80;;
14939;SDS011;11825;51.898;8.202;2023-04-24T22:47:59;10.53;;;6.63;;
14939;SDS011;11825;51.898;8.202;2023-04-24T22:53:01;9.70;;;5.70;;
14939;SDS011;11825;51.898;8.202;2023-04-24T22:58:02;11.23;;;4.97;;
14939;SDS011;11825;51.898;8.202;2023-04-24T23:03:04;10.77;;;6.27;;
14939;SDS011;11825;51.898;8.202;2023-04-24T23:08:07;18.77;;;6.63;;
14939;SDS011;11825;51.898;8.202;2023-04-24T23:13:09;11.97;;;6.07;;
14939;SDS011;11825;51.898;8.202;2023-04-24T23:18:10;13.20;;;5.70;;
14939;SDS011;11825;51.898;8.202;2023-04-24T23:23:12;12.27;;;6.53;;
14939;SDS011;11825;51.898;8.202;2023-04-24T23:28:16;12.73;;;5.60;;
14939;SDS011;11825;51.898;8.202;2023-04-24T23:33:18;17.37;;;6.43;;
14939;SDS011;11825;51.898;8.202;2023-04-24T23:38:20;11.40;;;5.00;;
14939;SDS011;11825;51.898;8.202;2023-04-24T23:43:22;11.53;;;6.10;;
14939;SDS011;11825;51.898;8.202;2023-04-24T23:48:24;12.33;;;5.90;;
14939;SDS011;11825;51.898;8.202;2023-04-24T23:53:26;11.30;;;5.00;;
14939;SDS011;11825;51.898;8.202;2023-04-24T23:58:28;13.27;;;7.20;;
